Latest Coastal Weather Observations for Devonport Airport

IDT60701

Issued at 10:42 pm EDT Friday 23 October 2020 (issued every 10 minutes, with the page automatically refreshed every 10 minutes)

About coastal observations | Map of coastal stations | Coastal observations for TAS | Marine services | Other Formats
Station Details ID: 091126 Name: DEVONPORT AIRPORT Lat: -41.17 Lon: 146.43 Height: 8.0 m
Data from the previous 72 hours. | See also: Recent months at Devonport Airport
Date/Time
EDT
Wind Sea
Height
m
Swell Vis
km
Cloud Weather Temp
°C
Press
MSL
hPa
Rain since
9am
mm
Dir  Spd
kts
Gust
kts
Height
m
Period
s
Dir
23/10:30pm S 3 4 - - - - 5 Partly cloudy - 12.9 1006.1 6.2
23/10:22pm SSE 1 4 - - - - 5 Partly cloudy - 12.9 1006.2 6.0
23/10:09pm CALM 0 0 - - - - 4 Partly cloudy - 12.9 1006.5 5.6
23/10:00pm CALM 0 0 - - - - 5 Partly cloudy - 12.9 1006.4 5.4
23/09:39pm S 3 4 - - - - 6 Partly cloudy - 13.0 1006.5 5.2
23/09:32pm S 3 4 - - - - 7 Partly cloudy - 13.0 1006.6 5.2
23/09:30pm S 3 4 - - - - 7 Partly cloudy - 12.9 1006.6 5.2
23/09:00pm ESE 1 4 - - - - 5 Cloudy Drizzle 13.0 1006.7 5.0
23/08:30pm CALM 0 0 - - - - 4 Cloudy - 12.9 1006.9 4.6
23/08:00pm CALM 0 0 - - - - 6 Cloudy - 12.9 1006.7 4.0
23/07:30pm CALM 0 0 - - - - 3 Cloudy - 13.0 1006.4 3.8
23/07:00pm ENE 1 3 - - - - 6 Cloudy - 12.9 1006.4 3.6
23/06:42pm ENE 3 4 - - - - 6 Cloudy - 12.9 1006.4 3.6
23/06:30pm ENE 3 4 - - - - 10 Cloudy - 12.9 1006.4 3.6
23/06:25pm ENE 3 5 - - - - 10 Cloudy - 13.1 1006.4 3.6
23/06:00pm ENE 3 4 - - - - 5 Cloudy Showers 13.1 1006.6 3.6
23/05:47pm ENE 4 5 - - - - 6 Cloudy - 13.0 1006.6 3.6
23/05:46pm ENE 4 5 - - - - 7 Cloudy - 12.9 1006.6 3.6
23/05:30pm NE 4 5 - - - - 5 Partly cloudy - 13.1 1006.8 3.6
23/05:27pm NE 4 5 - - - - 6 Partly cloudy - 13.0 1006.9 3.6
23/05:00pm ENE 5 7 - - - - 10 Partly cloudy - 12.8 1006.9 3.6
23/04:31pm NE 5 7 - - - - 10 Partly cloudy - 12.8 1007.2 3.4
23/04:30pm NE 5 7 - - - - 10 Partly cloudy - 12.8 1007.3 3.4
23/04:00pm NNE 5 7 - - - - 8 Partly cloudy - 12.7 1007.5 3.2
23/03:46pm NE 6 7 - - - - 6 Cloudy - 12.8 1007.5 3.2
23/03:45pm NE 6 7 - - - - 7 Cloudy - 12.7 1007.5 3.2
23/03:30pm NE 7 8 - - - - 10 Cloudy - 13.1 1007.6 3.2
23/03:00pm ENE 7 9 - - - - 10 Cloudy Showers 13.1 1007.9 3.2
23/02:30pm NE 9 10 - - - - 10 Partly cloudy - 13.1 1008.5 3.2
23/02:00pm NE 7 10 - - - - 10 Partly cloudy - 13.2 1009.0 3.2
23/01:30pm NNE 9 12 - - - - 10 Partly cloudy - 12.9 1009.3 3.0
23/01:17pm NE 9 12 - - - - 10 Partly cloudy - 13.3 1009.2 2.8
23/01:00pm NE 11 13 - - - - 10 Partly cloudy - 13.5 1009.4 2.8
23/12:30pm NE 11 13 - - - - 10 Partly cloudy - 13.0 1009.5 2.8
23/12:00pm NE 11 13 - - - - - Cloudy Rain 13.0 1010.1 2.4
23/11:30am NE 11 14 - - - - 10 Partly cloudy - 12.8 1010.6 2.0
23/11:00am NE 10 12 - - - - 10 Partly cloudy - 12.6 1010.9 1.6
23/10:30am NE 10 13 - - - - 10 Partly cloudy - 12.8 1010.9 1.2
23/10:24am NE 9 12 - - - - 10 Partly cloudy - 12.8 1011.0 1.0
23/10:00am ENE 8 10 - - - - 10 Partly cloudy - 12.9 1011.1 0.4
23/09:30am ENE 7 10 - - - - 10 Partly cloudy - 13.0 1011.4 0.2
23/09:27am ENE 6 9 - - - - 10 Partly cloudy - 12.8 1011.5 0.0
23/09:02am NE 4 5 - - - - 10 Partly cloudy - 12.8 1012.0 0.0
23/09:00am NE 4 5 - - - - 10 Cloudy Rain 12.7 1012.0 0.0
23/08:30am SE 4 4 - - - - 10 Partly cloudy - 12.7 1011.9 0.0
23/08:00am SSE 5 6 - - - - 10 Partly cloudy - 12.1 1011.9 0.0
23/07:30am SE 4 5 - - - - 10 Partly cloudy - 11.8 1012.0 0.0
23/07:00am SSE 4 5 - - - - 10 Partly cloudy - 11.2 1011.9 0.0
23/06:30am SSE 4 6 - - - - 10 Partly cloudy - 10.8 1011.8 0.0
23/06:00am E 4 5 - - - - 10 Cloudy - 11.1 1011.7 0.0
23/05:30am ESE 4 5 - - - - 10 Partly cloudy - 11.1 1011.7 0.0
23/05:29am ESE 4 5 - - - - 10 Partly cloudy - 11.2 1011.7 0.0
23/05:00am ESE 4 5 - - - - 10 Partly cloudy - 11.5 1011.9 0.0
23/04:50am E 3 4 - - - - 10 Partly cloudy - 11.6 1011.9 0.0
23/04:44am E 3 4 - - - - 10 Partly cloudy - 11.8 1012.0 0.0
23/04:30am E 2 4 - - - - 10 Partly cloudy - 12.0 1012.1 0.0
23/04:00am SE 4 5 - - - - 10 Partly cloudy - 12.1 1012.0 0.0
23/03:56am SE 4 5 - - - - 10 Partly cloudy - 12.1 1012.0 0.0
23/03:30am ESE 5 8 - - - - 10 Partly cloudy - 11.8 1012.0 0.0
23/03:00am ESE 7 10 - - - - 10 Cloudy - 12.1 1012.3 0.0
23/02:30am E 7 9 - - - - 10 Partly cloudy - 12.1 1013.1 0.0
23/02:00am ESE 7 8 - - - - 10 Partly cloudy - 12.2 1013.6 0.0
23/01:51am SE 6 7 - - - - 10 Partly cloudy - 12.1 1013.8 0.0
23/01:30am SE 7 8 - - - - 10 Partly cloudy - 11.9 1014.2 0.0
23/01:00am SE 6 7 - - - - 10 Partly cloudy - 12.3 1014.8 0.0
23/12:30am SE 5 7 - - - - 10 Partly cloudy - 12.4 1015.1 0.0
23/12:00am SE 4 4 - - - - 10 Cloudy - 12.2 1015.3 0.0
 
Date/Time
EDT
Wind Sea
Height
m
Swell Vis
km
Cloud Weather Temp
°C
Press
MSL
hPa
Rain since
9am
mm
Dir  Spd
kts
Gust
kts
Height
m
Period
s
Dir
22/11:30pm ESE 3 4 - - - - 10 Partly cloudy - 11.9 1015.7 0.0
22/11:12pm ESE 4 4 - - - - 10 Partly cloudy - 12.1 1015.7 0.0
22/11:00pm E 5 6 - - - - 10 Partly cloudy - 11.9 1015.8 0.0
22/10:30pm E 6 7 - - - - 10 Partly cloudy - 11.6 1015.9 0.0
22/10:00pm ESE 5 6 - - - - 10 Partly cloudy - 11.4 1016.3 0.0
22/09:30pm E 4 5 - - - - 10 Partly cloudy - 11.6 1016.3 0.0
22/09:00pm E 5 5 - - - - 10 Cloudy - 11.5 1015.8 0.0
22/08:30pm CALM 0 0 - - - - 10 - - 12.2 1015.6 0.0
22/08:00pm CALM 0 0 - - - - 10 - - 13.0 1015.2 0.0
22/07:30pm CALM 0 0 - - - - 10 - - 13.3 1015.2 0.0
22/07:00pm NNW 6 6 - - - - 10 - - 13.5 1015.3 0.0
22/06:30pm NNW 6 7 - - - - 10 - - 13.7 1015.4 0.0
22/06:00pm N 6 8 - - - - 10 Mostly cloudy - 14.2 1015.1 0.0
22/05:30pm N 6 8 - - - - 10 - - 14.2 1014.8 0.0
22/05:00pm N 5 7 - - - - 10 - - 14.8 1014.7 0.0
22/04:30pm N 6 8 - - - - 10 - - 14.7 1014.9 0.0
22/04:00pm NNW 6 8 - - - - 10 - - 15.4 1015.3 0.0
22/03:30pm NNW 8 10 - - - - 10 - - 15.4 1015.8 0.0
22/03:00pm N 8 11 - - - - 10 - - 15.2 1016.1 0.0
22/02:30pm N 7 10 - - - - 10 - - 15.1 1016.0 0.0
22/02:00pm N 9 11 - - - - 10 - - 15.2 1016.1 0.0
22/01:30pm N 9 11 - - - - 10 - - 15.4 1016.2 0.0
22/01:00pm N 10 12 - - - - 10 - - 15.8 1016.3 0.0
22/12:30pm NNE 11 13 - - - - 10 - - 15.5 1016.5 0.0
22/12:00pm N 10 13 - - - - 10 - - 15.6 1016.7 0.0
22/11:30am NNE 11 13 - - - - 10 - - 15.6 1016.9 0.0
22/11:00am NNE 12 15 - - - - 10 - - 15.4 1016.9 0.0
22/10:30am NE 9 11 - - - - 10 Partly cloudy - 15.3 1017.0 0.0
22/10:00am NNE 7 9 - - - - 10 Partly cloudy - 14.3 1017.2 0.0
22/09:30am N 6 8 - - - - 10 Partly cloudy - 14.4 1017.1 0.0
22/09:00am ESE 4 6 - - - - 10 Partly cloudy - 15.6 1016.9 0.0
22/08:30am SE 5 6 - - - - 10 Partly cloudy - 13.6 1016.7 0.0
22/08:00am SSE 5 6 - - - - 10 Cloudy - 12.5 1016.7 0.0
22/07:30am SSE 7 9 - - - - 10 Cloudy - 11.6 1016.4 0.0
22/07:00am S 5 6 - - - - 10 Partly cloudy - 10.7 1016.3 0.0
22/06:30am SSE 6 7 - - - - 10 Partly cloudy - 10.1 1015.9 0.0
22/06:00am SSE 6 7 - - - - 10 Cloudy - 10.2 1015.7 0.0
22/05:30am SSE 6 7 - - - - 10 Partly cloudy - 9.6 1015.4 0.0
22/05:00am SSE 6 8 - - - - 10 Partly cloudy - 9.5 1015.1 0.0
22/04:30am SSE 5 7 - - - - 10 Partly cloudy - 9.8 1015.0 0.0
22/04:00am SSE 7 8 - - - - 10 Partly cloudy - 10.4 1015.1 0.0
22/03:30am SSE 7 8 - - - - 10 Partly cloudy - 10.5 1014.9 0.0
22/03:00am S 6 7 - - - - 10 Cloudy - 10.1 1015.3 0.0
22/02:30am SSE 4 5 - - - - 10 Partly cloudy - 10.4 1015.2 0.0
22/02:00am SW 1 5 - - - - 10 Partly cloudy - 10.3 1015.5 0.0
22/01:30am CALM 0 0 - - - - 10 Partly cloudy - 11.4 1015.5 0.0
22/01:00am SSE 5 7 - - - - 10 Partly cloudy - 11.3 1015.6 0.0
22/12:30am SSE 8 9 - - - - 10 Partly cloudy - 11.5 1015.6 0.0
22/12:00am SSE 6 7 - - - - 10 Mostly cloudy - 11.3 1015.7 0.0
 
Date/Time
EDT
Wind Sea
Height
m
Swell Vis
km
Cloud Weather Temp
°C
Press
MSL
hPa
Rain since
9am
mm
Dir  Spd
kts
Gust
kts
Height
m
Period
s
Dir
21/11:30pm SSE 5 6 - - - - 10 Partly cloudy - 11.4 1015.6 0.0
21/11:00pm SSW 5 6 - - - - 10 Cloudy - 12.5 1015.6 0.0
21/10:30pm S 6 7 - - - - 10 Partly cloudy - 12.6 1015.5 0.0
21/10:00pm S 5 7 - - - - 10 Partly cloudy - 12.3 1015.5 0.0
21/09:30pm SSE 5 7 - - - - 10 Partly cloudy - 12.1 1015.3 0.0
21/09:00pm SSE 6 8 - - - - 10 Mostly cloudy - 12.7 1015.0 0.0
21/08:30pm E 5 6 - - - - 10 Cloudy - 13.3 1014.5 0.0
21/08:00pm E 6 8 - - - - 10 Cloudy - 13.3 1014.4 0.0
21/07:30pm ENE 7 9 - - - - 10 Cloudy - 13.8 1014.0 0.0
21/07:00pm ENE 7 9 - - - - 10 Partly cloudy - 14.1 1013.9 0.0
21/06:30pm NE 7 8 - - - - 10 Partly cloudy - 13.9 1013.6 0.0
21/06:00pm N 7 9 - - - - 10 Mostly cloudy - 14.1 1013.7 0.0
21/05:30pm N 9 11 - - - - 10 Partly cloudy - 14.4 1013.7 0.0
21/05:00pm NNW 10 11 - - - - 10 - - 14.7 1013.7 0.0
21/04:30pm NNW 10 12 - - - - 10 - - 14.8 1013.7 0.0
21/04:00pm NW 11 14 - - - - 10 - - 14.9 1013.9 0.0
21/03:30pm NW 13 15 - - - - 10 - - 14.8 1014.2 0.0
21/03:00pm NW 12 14 - - - - 10 Mostly clear - 14.7 1014.3 0.0
21/02:30pm NW 10 13 - - - - 10 - - 15.0 1014.7 0.0
21/02:00pm NW 11 13 - - - - 10 - - 15.2 1015.1 0.0
21/01:30pm NW 11 14 - - - - 10 Partly cloudy - 14.6 1015.3 0.0
21/01:00pm NW 9 11 - - - - 10 Partly cloudy - 13.9 1015.3 0.0
21/12:30pm NNW 7 8 - - - - 10 Cloudy - 13.9 1015.2 0.0
21/12:00pm NNW 6 8 - - - - 10 Cloudy - 13.8 1015.5 0.0
21/11:30am NW 8 10 - - - - 10 Partly cloudy - 12.9 1015.9 0.0
21/11:00am SE 6 11 - - - - 10 Partly cloudy - 14.3 1015.8 0.0
21/10:30am ESE 8 12 - - - - 10 Partly cloudy - 14.6 1015.9 0.0
21/10:00am ESE 8 11 - - - - 10 Partly cloudy - 13.9 1015.9 0.0
21/09:30am ESE 6 9 - - - - 10 Partly cloudy - 12.8 1016.1 0.0
21/09:00am ESE 6 8 - - - - 10 - - 12.8 1016.0 0.0
21/08:32am E 6 8 - - - - 10 Partly cloudy - 12.1 1016.0 0.0
21/08:30am E 6 8 - - - - 10 Partly cloudy - 11.7 1016.0 0.0
21/08:00am SE 5 6 - - - - 10 Cloudy - 11.3 1015.8 0.0
21/07:30am SE 5 6 - - - - 10 Cloudy - 11.0 1015.6 0.0
21/07:00am SE 4 6 - - - - 10 Cloudy - 10.5 1015.6 0.0
21/06:30am SE 5 5 - - - - 10 Cloudy - 10.3 1015.4 0.0
21/06:00am SE 6 7 - - - - 10 Cloudy - 9.8 1015.1 0.0
21/05:30am SSE 6 8 - - - - 10 Cloudy - 9.4 1015.2 0.0
21/05:00am SE 6 7 - - - - 10 Partly cloudy - 9.3 1015.1 0.0
21/04:56am SE 6 7 - - - - 10 Partly cloudy - 9.1 1015.0 0.0
21/04:30am SSE 6 6 - - - - 10 - - 9.2 1015.1 0.0
21/04:01am SSE 6 7 - - - - 10 Partly cloudy - 9.4 1015.3 0.0
21/04:00am SSE 6 7 - - - - 10 Partly cloudy - 9.3 1015.3 0.0
21/03:30am SSE 4 5 - - - - 10 Cloudy - 9.6 1015.3 0.0
21/03:00am WSW 4 5 - - - - 10 Cloudy - 9.6 1015.6 0.0
21/02:30am CALM 0 0 - - - - 10 Cloudy - 9.3 1015.5 0.0
21/02:00am CALM 0 0 - - - - 10 Cloudy - 8.4 1015.6 0.0
21/01:43am CALM 0 0 - - - - 10 Partly cloudy - 8.4 1015.8 0.0
21/01:30am CALM 0 0 - - - - 10 - - 8.3 1015.9 0.0
21/01:00am SSW 3 3 - - - - 10 - - 9.2 1015.9 0.0
21/12:30am SSW 4 6 - - - - 10 - - 9.8 1016.0 0.0
21/12:00am SSE 5 7 - - - - 10 Mostly cloudy - 9.6 1016.0 0.0
 
Date/Time
EDT
Wind Sea
Height
m
Swell Vis
km
Cloud Weather Temp
°C
Press
MSL
hPa
Rain since
9am
mm
Dir  Spd
kts
Gust
kts
Height
m
Period
s
Dir
20/11:30pm S 7 8 - - - - 10 - - 9.8 1016.2 0.0
20/11:00pm S 7 9 - - - - 10 - - 10.1 1016.4 0.0

Other formats

Comma delimited format used in spreadsheet applications
http://www.bom.gov.au/fwo/IDT60701/IDT60701.95960.axf

JavaScript Object Notation format (JSON) in row-major order
http://www.bom.gov.au/fwo/IDT60701/IDT60701.95960.json

Data quality

Most of these data are generated automatically and are frequently updated. Quality checks on data are not normally performed. It is possible for incorrect values to appear. Refer to information at About Latest Weather Observations and please check the disclaimer before using these data.